Time;durP1;ratioP1;P1;durP2;ratioP2;P2;SDS_P1;SDS_P2;PMS_P1;PMS_P2;Temp;Humidity;BMP_temperature;BMP_pressure;BME280_temperature;BME280_humidity;BME280_pressure;Samples;Min_cycle;Max_cycle;Signal;HPM_P1;HPM_P2
2022/10/11 00:02:13;;;;;;;45.23;23.87;;;;;;;;;;5019659;28;87331;-72
2022/10/11 00:04:41;;;;;;;42.77;22.17;;;;;;;;;;5021077;28;87914;-73
2022/10/11 00:07:10;;;;;;;39.83;22.33;;;;;;;;;;5020611;28;87913;-72
2022/10/11 00:09:38;;;;;;;41.70;22.70;;;;;;;;;;5020860;28;87110;-72
2022/10/11 00:12:06;;;;;;;43.10;23.37;;;;;;;;;;5020070;28;86979;-72
2022/10/11 00:14:35;;;;;;;38.93;22.80;;;;;;;;;;5019933;28;90120;-73
2022/10/11 00:17:03;;;;;;;45.23;22.77;;;;;;;;;;5020335;28;89897;-72
2022/10/11 00:19:33;;;;;;;39.90;21.27;;;;;;;;;;5020221;28;86971;-72
2022/10/11 00:22:01;;;;;;;40.03;21.50;;;;;;;;;;5020219;28;87068;-73
2022/10/11 00:24:29;;;;;;;37.13;19.50;;;;;;;;;;5019597;28;89558;-72
2022/10/11 00:26:58;;;;;;;37.80;20.67;;;;;;;;;;5019364;28;88972;-72
2022/10/11 00:29:26;;;;;;;37.63;21.60;;;;;;;;;;5019530;28;87120;-71
2022/10/11 00:31:54;;;;;;;37.57;20.57;;;;;;;;;;5020239;28;86180;-72
2022/10/11 00:34:22;;;;;;;38.40;22.07;;;;;;;;;;5019753;28;88950;-72
2022/10/11 00:36:52;;;;;;;38.63;20.13;;;;;;;;;;5019342;28;88772;-72
2022/10/11 00:39:20;;;;;;;35.03;20.43;;;;;;;;;;5018930;28;87919;-72
2022/10/11 00:41:49;;;;;;;38.43;18.80;;;;;;;;;;5011626;28;89220;-72
2022/10/11 00:44:17;;;;;;;25.97;17.60;;;;;;;;;;5020081;28;89426;-72
2022/10/11 00:46:46;;;;;;;36.30;18.90;;;;;;;;;;5019597;28;88029;-72
2022/10/11 00:49:16;;;;;;;33.30;19.43;;;;;;;;;;5020357;28;87034;-72
2022/10/11 00:51:46;;;;;;;38.47;19.63;;;;;;;;;;5017597;28;87120;-72
2022/10/11 00:54:16;;;;;;;39.77;20.17;;;;;;;;;;5005791;28;88703;-72
2022/10/11 00:56:44;;;;;;;31.67;18.27;;;;;;;;;;5019975;28;88807;-72
2022/10/11 00:59:13;;;;;;;33.70;19.17;;;;;;;;;;5019857;28;87126;-72
2022/10/11 01:01:41;;;;;;;30.60;19.00;;;;;;;;;;5019574;28;87224;-73
2022/10/11 01:04:10;;;;;;;34.60;19.53;;;;;;;;;;5018418;28;90033;-72
2022/10/11 01:06:38;;;;;;;46.50;21.10;;;;;;;;;;5019271;28;89986;-72
2022/10/11 01:09:06;;;;;;;34.53;18.73;;;;;;;;;;5019858;28;87101;-73
2022/10/11 01:11:36;;;;;;;29.73;18.43;;;;;;;;;;5019800;28;87025;-72
2022/10/11 01:14:22;;;;;;;32.53;19.00;;;;;;;;;;5019099;28;89103;-73
2022/10/11 01:16:52;;;;;;;33.30;18.63;;;;;;;;;;5018849;28;89384;-74
2022/10/11 01:19:25;;;;;;;35.37;19.73;;;;;;;;;;5018819;28;87048;-73
2022/10/11 01:21:55;;;;;;;36.23;18.50;;;;;;;;;;5019095;28;86393;-73
2022/10/11 01:24:30;;;;;;;42.63;21.10;;;;;;;;;;5018867;28;89373;-74
2022/10/11 01:27:17;;;;;;;31.30;18.83;;;;;;;;;;5019296;28;88914;-73
2022/10/11 01:29:49;;;;;;;30.07;18.63;;;;;;;;;;4999049;28;87996;-73
2022/10/11 01:32:19;;;;;;;37.00;19.83;;;;;;;;;;5004539;28;87021;-73
2022/10/11 01:34:48;;;;;;;34.67;20.97;;;;;;;;;;5018564;28;89122;-73
2022/10/11 01:37:17;;;;;;;36.20;19.57;;;;;;;;;;5018312;28;89626;-73
2022/10/11 01:39:46;;;;;;;38.83;20.63;;;;;;;;;;5018783;28;87104;-73
2022/10/11 01:42:15;;;;;;;34.13;20.10;;;;;;;;;;5018173;28;87058;-73
2022/10/11 01:44:43;;;;;;;32.83;18.33;;;;;;;;;;5018856;28;89456;-73
2022/10/11 01:47:11;;;;;;;34.73;18.63;;;;;;;;;;5019271;28;88730;-73
2022/10/11 01:49:41;;;;;;;31.47;18.13;;;;;;;;;;5018166;28;88673;-73
2022/10/11 01:52:10;;;;;;;33.27;17.63;;;;;;;;;;5022249;28;86993;-73
2022/10/11 01:54:50;;;;;;;32.50;19.33;;;;;;;;;;5020991;28;90046;-73
2022/10/11 01:57:44;;;;;;;29.70;17.07;;;;;;;;;;5022508;28;89624;-73
2022/10/11 02:00:13;;;;;;;33.10;19.63;;;;;;;;;;5022302;28;87023;-73
2022/10/11 02:02:45;;;;;;;39.87;18.90;;;;;;;;;;5022523;28;87140;-72
2022/10/11 02:05:17;;;;;;;33.57;18.87;;;;;;;;;;5022559;28;87566;-72
2022/10/11 02:07:45;;;;;;;35.27;18.67;;;;;;;;;;5021361;28;89213;-72
2022/10/11 02:10:15;;;;;;;30.60;17.17;;;;;;;;;;5022553;28;86966;-73
2022/10/11 02:12:43;;;;;;;30.93;17.07;;;;;;;;;;5022332;28;86243;-72
2022/10/11 02:15:12;;;;;;;28.13;17.27;;;;;;;;;;5021829;28;88898;-72
2022/10/11 02:17:42;;;;;;;29.63;18.30;;;;;;;;;;5021539;28;88959;-72
2022/10/11 02:20:11;;;;;;;28.73;16.10;;;;;;;;;;5020961;28;88001;-72
2022/10/11 02:22:41;;;;;;;30.40;17.67;;;;;;;;;;5021864;28;87626;-72
2022/10/11 02:25:10;;;;;;;30.07;16.97;;;;;;;;;;5022092;28;88893;-72
2022/10/11 02:27:38;;;;;;;33.57;18.53;;;;;;;;;;5021856;28;89029;-72
2022/10/11 02:30:07;;;;;;;29.13;16.23;;;;;;;;;;5021080;28;87056;-73
2022/10/11 02:32:36;;;;;;;33.47;17.07;;;;;;;;;;5021608;28;87014;-72
2022/10/11 02:35:04;;;;;;;24.73;16.13;;;;;;;;;;5021737;28;89166;-72
2022/10/11 02:37:33;;;;;;;30.87;16.97;;;;;;;;;;5021747;28;88980;-73
2022/10/11 02:40:04;;;;;;;27.97;16.73;;;;;;;;;;5021846;28;86993;-72
2022/10/11 02:42:35;;;;;;;25.90;17.27;;;;;;;;;;5021788;28;87114;-72
2022/10/11 02:45:05;;;;;;;25.00;14.60;;;;;;;;;;5021282;28;90040;-73
2022/10/11 02:47:33;;;;;;;30.23;16.40;;;;;;;;;;5020755;28;88701;-72
2022/10/11 02:50:02;;;;;;;29.37;15.40;;;;;;;;;;5021822;28;86953;-72
2022/10/11 02:52:30;;;;;;;28.37;16.20;;;;;;;;;;5021677;28;87044;-73
2022/10/11 02:54:58;;;;;;;29.73;17.17;;;;;;;;;;5020982;28;89109;-73
2022/10/11 02:57:28;;;;;;;31.70;17.73;;;;;;;;;;5021326;28;88896;-73
2022/10/11 02:59:56;;;;;;;33.10;16.93;;;;;;;;;;5020916;28;87140;-73
2022/10/11 03:02:24;;;;;;;29.73;16.90;;;;;;;;;;5021609;28;86247;-72
2022/10/11 03:04:52;;;;;;;31.80;16.50;;;;;;;;;;5020948;28;89157;-72
2022/10/11 03:07:21;;;;;;;29.40;16.97;;;;;;;;;;5020922;28;88813;-72
2022/10/11 03:09:49;;;;;;;32.60;16.53;;;;;;;;;;5019987;28;88082;-72
2022/10/11 03:12:17;;;;;;;27.87;15.43;;;;;;;;;;5017843;28;86967;-73
2022/10/11 03:14:47;;;;;;;30.67;16.80;;;;;;;;;;5011062;28;90450;-73
2022/10/11 03:17:15;;;;;;;25.53;15.77;;;;;;;;;;5026335;28;88850;-73
2022/10/11 03:20:03;;;;;;;28.00;16.00;;;;;;;;;;5020140;28;86911;-73
2022/10/11 03:22:32;;;;;;;28.90;16.17;;;;;;;;;;5020568;28;87205;-73
2022/10/11 03:25:00;;;;;;;27.73;14.50;;;;;;;;;;5020589;28;88821;-73
2022/10/11 03:27:31;;;;;;;29.33;16.23;;;;;;;;;;5021620;28;87942;-73
2022/10/11 03:30:01;;;;;;;21.73;14.57;;;;;;;;;;5039782;28;86997;-73
2022/10/11 03:32:29;;;;;;;26.33;14.60;;;;;;;;;;5028668;27;87822;-72
2022/10/11 03:34:57;;;;;;;30.40;15.83;;;;;;;;;;5020593;28;90335;-72
2022/10/11 03:37:26;;;;;;;27.07;15.17;;;;;;;;;;5020958;27;90152;-72
2022/10/11 03:39:54;;;;;;;27.07;13.53;;;;;;;;;;5020782;28;86942;-73
2022/10/11 03:42:22;;;;;;;25.57;14.20;;;;;;;;;;5021175;28;87041;-72
2022/10/11 03:44:51;;;;;;;25.97;14.40;;;;;;;;;;5021449;28;88647;-73
2022/10/11 03:47:20;;;;;;;23.20;12.90;;;;;;;;;;5024518;28;89006;-73
2022/10/11 03:49:48;;;;;;;21.07;12.87;;;;;;;;;;5028843;27;87294;-72
2022/10/11 03:52:17;;;;;;;27.73;14.70;;;;;;;;;;5029128;28;86340;-73
2022/10/11 03:54:45;;;;;;;24.90;13.90;;;;;;;;;;5029459;28;88923;-73
2022/10/11 03:57:13;;;;;;;23.23;13.60;;;;;;;;;;5025565;27;88935;-73
2022/10/11 03:59:41;;;;;;;20.53;12.90;;;;;;;;;;5027776;27;87973;-72
2022/10/11 04:02:10;;;;;;;22.77;12.77;;;;;;;;;;5029404;27;86934;-73
2022/10/11 04:04:39;;;;;;;24.17;13.80;;;;;;;;;;5031439;28;89013;-73
2022/10/11 04:07:07;;;;;;;24.03;13.03;;;;;;;;;;5030856;27;88727;-72
2022/10/11 04:09:36;;;;;;;23.80;12.53;;;;;;;;;;5027277;28;86959;-73
2022/10/11 04:12:04;;;;;;;24.33;13.80;;;;;;;;;;5039542;27;86973;-73
2022/10/11 04:14:33;;;;;;;29.10;13.90;;;;;;;;;;5023098;28;89532;-72
2022/10/11 04:17:01;;;;;;;26.63;13.40;;;;;;;;;;5035722;28;88896;-72
2022/10/11 04:19:29;;;;;;;23.60;14.03;;;;;;;;;;5020346;28;87057;-71
2022/10/11 04:21:59;;;;;;;25.70;13.87;;;;;;;;;;5019997;28;87076;-70
2022/10/11 04:24:27;;;;;;;27.63;11.90;;;;;;;;;;5021912;28;89985;-73
2022/10/11 04:26:55;;;;;;;40.23;14.03;;;;;;;;;;5025968;28;89830;-73
2022/10/11 04:29:24;;;;;;;24.80;12.67;;;;;;;;;;5028851;28;87127;-72
2022/10/11 04:31:59;;;;;;;36.97;13.50;;;;;;;;;;5027801;27;87050;-73
2022/10/11 04:34:27;;;;;;;26.87;13.33;;;;;;;;;;5030296;28;89023;-72
2022/10/11 04:36:55;;;;;;;27.67;13.37;;;;;;;;;;5043263;27;88874;-73
2022/10/11 04:39:25;;;;;;;27.63;14.60;;;;;;;;;;5047487;27;88703;-73
2022/10/11 04:41:53;;;;;;;32.50;15.40;;;;;;;;;;5048076;27;86990;-72
2022/10/11 04:44:22;;;;;;;28.60;13.90;;;;;;;;;;5043965;27;89550;-73
2022/10/11 04:46:50;;;;;;;37.23;13.53;;;;;;;;;;5049387;27;91508;-72
2022/10/11 04:49:18;;;;;;;33.20;14.17;;;;;;;;;;5048229;27;88140;-73
2022/10/11 04:51:47;;;;;;;30.13;13.47;;;;;;;;;;5049237;27;87075;-74
2022/10/11 04:54:15;;;;;;;30.00;12.63;;;;;;;;;;5044532;27;88987;-72
2022/10/11 04:56:45;;;;;;;25.53;13.70;;;;;;;;;;5039946;28;88977;-73
2022/10/11 04:59:13;;;;;;;23.73;12.60;;;;;;;;;;5040865;28;87049;-74
2022/10/11 05:01:41;;;;;;;33.63;15.23;;;;;;;;;;5038370;27;87106;-72
2022/10/11 05:04:10;;;;;;;30.73;13.67;;;;;;;;;;5051853;27;89256;-72
2022/10/11 05:06:38;;;;;;;29.97;14.07;;;;;;;;;;5048406;27;88989;-72
2022/10/11 05:09:06;;;;;;;34.90;13.67;;;;;;;;;;5047597;27;86985;-72
2022/10/11 05:11:34;;;;;;;36.83;13.93;;;;;;;;;;5049362;27;87047;-72
2022/10/11 05:14:04;;;;;;;23.50;12.00;;;;;;;;;;5046736;27;87978;-72
2022/10/11 05:16:32;;;;;;;28.20;13.00;;;;;;;;;;5047005;27;89295;-72
2022/10/11 05:19:01;;;;;;;26.33;12.77;;;;;;;;;;5047227;27;87316;-72
2022/10/11 05:21:29;;;;;;;30.07;13.67;;;;;;;;;;5045448;27;86949;-72
2022/10/11 05:23:58;;;;;;;29.33;12.53;;;;;;;;;;5049253;27;91286;-72
2022/10/11 05:26:27;;;;;;;31.20;13.53;;;;;;;;;;5051276;27;88966;-72
2022/10/11 05:28:55;;;;;;;24.37;11.97;;;;;;;;;;5051346;27;87232;-73
2022/10/11 05:31:25;;;;;;;24.07;12.17;;;;;;;;;;5051363;27;86620;-72
2022/10/11 05:33:53;;;;;;;20.00;11.47;;;;;;;;;;5051443;27;88637;-72
2022/10/11 05:36:22;;;;;;;26.30;12.03;;;;;;;;;;5050850;27;88747;-72
2022/10/11 05:38:52;;;;;;;29.00;10.83;;;;;;;;;;5041351;27;87986;-72
2022/10/11 05:41:21;;;;;;;17.33;9.73;;;;;;;;;;5050189;27;87019;-73
2022/10/11 05:43:49;;;;;;;21.20;10.23;;;;;;;;;;5049083;27;88965;-73
2022/10/11 05:46:17;;;;;;;18.80;10.00;;;;;;;;;;5051662;27;89086;-73
2022/10/11 05:48:47;;;;;;;19.97;9.50;;;;;;;;;;5053158;27;86948;-72
2022/10/11 05:51:18;;;;;;;20.67;9.43;;;;;;;;;;5053138;27;87036;-72
2022/10/11 05:53:46;;;;;;;18.97;8.97;;;;;;;;;;5052076;27;91774;-72
2022/10/11 05:56:21;;;;;;;17.77;9.00;;;;;;;;;;5051138;27;88876;-73
2022/10/11 05:58:49;;;;;;;20.37;9.40;;;;;;;;;;5052338;27;87140;-72
2022/10/11 06:01:21;;;;;;;15.43;8.30;;;;;;;;;;5053764;27;87193;-72
2022/10/11 06:03:51;;;;;;;16.73;7.73;;;;;;;;;;5052587;27;89982;-72
2022/10/11 06:06:19;;;;;;;16.17;7.77;;;;;;;;;;5047577;27;88673;-73
2022/10/11 06:08:48;;;;;;;18.03;9.07;;;;;;;;;;5047195;27;87084;-73
2022/10/11 06:11:17;;;;;;;13.03;8.10;;;;;;;;;;5053182;27;87112;-72
2022/10/11 06:13:45;;;;;;;14.70;6.97;;;;;;;;;;5047914;27;89465;-72
2022/10/11 06:16:14;;;;;;;14.30;6.93;;;;;;;;;;5053580;27;88932;-72
2022/10/11 06:18:42;;;;;;;16.27;6.67;;;;;;;;;;5050995;27;87189;-73
2022/10/11 06:21:12;;;;;;;12.00;6.10;;;;;;;;;;5052354;27;88117;-75
2022/10/11 06:23:40;;;;;;;13.00;6.20;;;;;;;;;;5050331;27;88510;-78
2022/10/11 06:28:56;;;;;;;6.27;4.17;;;;;;;;;;5086167;27;81655;-54
2022/10/11 06:31:24;;;;;;;6.47;3.93;;;;;;;;;;5081358;27;81803;-55
2022/10/11 06:33:53;;;;;;;5.43;3.30;;;;;;;;;;5082088;27;81710;-55
2022/10/11 06:36:21;;;;;;;9.43;4.23;;;;;;;;;;5080234;27;84018;-54
2022/10/11 06:38:51;;;;;;;6.47;3.83;;;;;;;;;;5079707;27;82138;-54
2022/10/11 06:41:20;;;;;;;6.93;3.53;;;;;;;;;;5080704;27;81557;-54
2022/10/11 06:43:49;;;;;;;5.60;3.80;;;;;;;;;;5080063;27;81670;-54
2022/10/11 06:46:19;;;;;;;6.53;3.77;;;;;;;;;;5081214;27;81829;-54
2022/10/11 06:48:47;;;;;;;6.83;3.07;;;;;;;;;;5083343;27;82141;-54
2022/10/11 06:51:16;;;;;;;3.80;3.00;;;;;;;;;;5081017;27;81795;-55
2022/10/11 06:53:44;;;;;;;7.03;3.20;;;;;;;;;;5083921;27;81602;-55
2022/10/11 06:56:13;;;;;;;8.37;3.40;;;;;;;;;;5077828;27;82610;-54
2022/10/11 06:58:41;;;;;;;6.47;2.80;;;;;;;;;;5081521;27;82169;-54
2022/10/11 07:01:15;;;;;;;7.37;3.77;;;;;;;;;;5080963;27;82257;-54
2022/10/11 07:03:45;;;;;;;5.77;2.90;;;;;;;;;;5079997;27;81958;-54
2022/10/11 07:06:15;;;;;;;4.07;2.80;;;;;;;;;;5077706;27;83871;-54
2022/10/11 07:08:43;;;;;;;4.63;2.57;;;;;;;;;;5083365;27;81700;-54
2022/10/11 07:11:12;;;;;;;5.33;2.70;;;;;;;;;;5080512;27;82116;-54
2022/10/11 07:13:41;;;;;;;5.63;2.87;;;;;;;;;;5079801;27;82078;-54
2022/10/11 07:16:09;;;;;;;4.23;2.60;;;;;;;;;;5081171;27;82625;-54
2022/10/11 07:18:38;;;;;;;6.57;2.40;;;;;;;;;;5080259;27;83314;-54
2022/10/11 07:21:08;;;;;;;5.03;2.60;;;;;;;;;;5079901;27;82074;-54
2022/10/11 07:23:37;;;;;;;4.80;3.13;;;;;;;;;;5078029;27;83574;-54
2022/10/11 07:26:06;;;;;;;4.17;2.83;;;;;;;;;;5079223;27;82798;-54
2022/10/11 07:28:35;;;;;;;2.83;2.33;;;;;;;;;;5077349;27;83326;-54
2022/10/11 07:31:04;;;;;;;5.13;2.47;;;;;;;;;;5079499;27;81801;-54
2022/10/11 07:33:33;;;;;;;3.47;2.23;;;;;;;;;;5078266;27;82390;-55
2022/10/11 07:36:01;;;;;;;3.80;2.20;;;;;;;;;;5080381;27;82475;-55
2022/10/11 07:38:32;;;;;;;4.10;2.30;;;;;;;;;;5073306;27;83245;-55
2022/10/11 07:41:00;;;;;;;2.67;2.40;;;;;;;;;;5066492;27;81742;-54
2022/10/11 07:43:28;;;;;;;2.70;2.07;;;;;;;;;;5061594;27;81814;-55
2022/10/11 07:46:02;;;;;;;3.73;1.80;;;;;;;;;;5064896;27;82575;-55
2022/10/11 07:48:32;;;;;;;3.13;2.30;;;;;;;;;;5082899;27;82219;-54
2022/10/11 07:51:03;;;;;;;4.63;2.20;;;;;;;;;;5065489;27;81785;-55
2022/10/11 07:53:33;;;;;;;3.90;2.20;;;;;;;;;;5067108;27;81876;-55
2022/10/11 07:56:02;;;;;;;3.00;1.90;;;;;;;;;;5065833;27;82634;-55
2022/10/11 07:58:31;;;;;;;1.60;1.23;;;;;;;;;;5073846;27;82171;-55
2022/10/11 08:00:59;;;;;;;2.90;1.70;;;;;;;;;;5068520;27;81742;-56
2022/10/11 08:03:27;;;;;;;2.40;1.73;;;;;;;;;;5066273;27;81560;-55
2022/10/11 08:05:59;;;;;;;4.00;2.23;;;;;;;;;;5065989;27;82955;-55
2022/10/11 08:08:27;;;;;;;3.97;1.93;;;;;;;;;;5071714;27;82142;-55
2022/10/11 08:10:57;;;;;;;2.70;1.53;;;;;;;;;;5083456;27;81699;-55
2022/10/11 08:13:25;;;;;;;2.77;1.90;;;;;;;;;;5080586;27;81797;-55
2022/10/11 08:15:54;;;;;;;2.13;1.60;;;;;;;;;;5086365;27;82936;-54
2022/10/11 08:18:23;;;;;;;8.33;2.50;;;;;;;;;;5079245;27;82448;-55
2022/10/11 08:20:51;;;;;;;5.83;2.07;;;;;;;;;;5065595;27;81616;-54
2022/10/11 08:23:19;;;;;;;7.80;2.17;;;;;;;;;;5065142;27;81811;-55
2022/10/11 08:25:48;;;;;;;5.90;1.80;;;;;;;;;;5066793;27;81836;-55
2022/10/11 08:28:19;;;;;;;1.70;1.50;;;;;;;;;;5068115;27;82260;-55
2022/10/11 08:30:48;;;;;;;2.03;1.30;;;;;;;;;;5069156;27;81755;-55
2022/10/11 08:33:20;;;;;;;7.57;1.63;;;;;;;;;;5065172;27;82358;-55
2022/10/11 08:35:49;;;;;;;1.47;1.10;;;;;;;;;;5065653;27;83020;-54
2022/10/11 08:38:17;;;;;;;2.10;1.37;;;;;;;;;;5065037;27;81654;-54
2022/10/11 08:40:46;;;;;;;4.60;1.40;;;;;;;;;;5065337;27;81657;-55
2022/10/11 08:43:15;;;;;;;3.93;1.13;;;;;;;;;;5065739;27;81734;-54
2022/10/11 08:45:46;;;;;;;3.03;1.70;;;;;;;;;;5065612;27;82920;-55
2022/10/11 08:48:16;;;;;;;2.50;1.07;;;;;;;;;;5065432;27;82409;-54
2022/10/11 08:50:45;;;;;;;1.73;1.30;;;;;;;;;;5064275;27;81566;-53
2022/10/11 08:53:15;;;;;;;1.67;1.00;;;;;;;;;;5065095;27;81696;-55
2022/10/11 08:55:44;;;;;;;2.00;1.70;;;;;;;;;;5065164;27;82751;-54
2022/10/11 08:58:13;;;;;;;7.43;1.37;;;;;;;;;;5065513;27;83481;-55
2022/10/11 09:00:42;;;;;;;1.57;1.07;;;;;;;;;;5065323;27;81724;-55
2022/10/11 09:03:21;;;;;;;1.33;1.03;;;;;;;;;;5065478;27;81663;-55
2022/10/11 09:05:53;;;;;;;0.87;0.87;;;;;;;;;;5065383;27;82661;-54
2022/10/11 09:08:22;;;;;;;2.90;1.70;;;;;;;;;;5064932;27;82162;-54
2022/10/11 09:10:56;;;;;;;2.30;1.10;;;;;;;;;;5063790;27;82191;-55
2022/10/11 09:13:43;;;;;;;2.83;1.50;;;;;;;;;;5062086;27;81787;-54
2022/10/11 09:16:15;;;;;;;1.37;0.87;;;;;;;;;;5063853;27;82635;-54
2022/10/11 09:18:48;;;;;;;3.33;1.03;;;;;;;;;;5061549;27;82357;-55
2022/10/11 09:21:19;;;;;;;1.07;0.90;;;;;;;;;;5063468;27;82282;-55
2022/10/11 09:24:00;;;;;;;4.23;1.03;;;;;;;;;;5060829;27;82079;-54
2022/10/11 09:26:29;;;;;;;2.20;1.13;;;;;;;;;;5063953;27;82689;-55
2022/10/11 09:28:58;;;;;;;1.80;0.90;;;;;;;;;;5023533;28;82286;-55
2022/10/11 09:31:28;;;;;;;1.00;0.90;;;;;;;;;;5023181;28;82515;-55
2022/10/11 09:33:58;;;;;;;0.93;0.87;;;;;;;;;;5023550;28;81731;-55
2022/10/11 09:36:29;;;;;;;1.17;1.07;;;;;;;;;;5023220;28;81694;-55
2022/10/11 09:39:03;;;;;;;1.57;1.07;;;;;;;;;;5023000;28;83509;-55
2022/10/11 09:41:35;;;;;;;2.03;0.90;;;;;;;;;;5021539;28;82232;-55
2022/10/11 09:44:03;;;;;;;1.07;0.60;;;;;;;;;;5023107;28;81735;-54
2022/10/11 09:46:32;;;;;;;0.70;0.70;;;;;;;;;;5022994;28;82582;-55
2022/10/11 09:49:02;;;;;;;0.90;0.80;;;;;;;;;;5022798;28;82320;-54
2022/10/11 09:51:31;;;;;;;4.87;1.13;;;;;;;;;;5023077;28;81685;-54
2022/10/11 09:53:59;;;;;;;0.77;0.73;;;;;;;;;;5022766;28;81718;-53
2022/10/11 09:56:28;;;;;;;1.03;0.67;;;;;;;;;;5023233;28;81710;-55
2022/10/11 09:59:24;;;;;;;1.20;1.03;;;;;;;;;;5022531;28;81890;-55
2022/10/11 10:02:06;;;;;;;0.67;0.63;;;;;;;;;;4986857;28;82038;-55
2022/10/11 10:04:36;;;;;;;0.90;0.70;;;;;;;;;;5023321;28;81790;-54
2022/10/11 10:07:11;;;;;;;2.27;0.80;;;;;;;;;;5022911;28;83976;-56
2022/10/11 10:09:40;;;;;;;1.90;0.90;;;;;;;;;;5023127;28;82024;-54
2022/10/11 10:12:11;;;;;;;1.23;0.90;;;;;;;;;;5022847;28;82177;-54
2022/10/11 10:14:40;;;;;;;3.10;1.30;;;;;;;;;;5022182;28;81728;-55
2022/10/11 10:17:14;;;;;;;1.13;0.77;;;;;;;;;;5022793;28;82540;-53
2022/10/11 10:19:49;;;;;;;0.80;0.80;;;;;;;;;;5019401;28;82082;-56
2022/10/11 10:22:18;;;;;;;1.00;0.77;;;;;;;;;;5022312;28;81708;-55
2022/10/11 10:24:46;;;;;;;1.63;0.67;;;;;;;;;;5019835;28;81767;-56
2022/10/11 10:27:20;;;;;;;0.80;0.80;;;;;;;;;;5033707;27;82526;-56
2022/10/11 10:30:02;;;;;;;0.60;0.60;;;;;;;;;;5060545;27;82382;-56
2022/10/11 10:32:31;;;;;;;0.47;0.47;;;;;;;;;;5060988;27;81867;-57
2022/10/11 10:35:03;;;;;;;0.60;0.50;;;;;;;;;;5062962;27;81791;-56
2022/10/11 10:37:33;;;;;;;2.20;0.80;;;;;;;;;;5062516;27;82709;-55
2022/10/11 10:40:02;;;;;;;1.67;0.73;;;;;;;;;;5061680;27;84212;-57
2022/10/11 10:42:31;;;;;;;1.13;0.80;;;;;;;;;;5062310;27;83936;-56
2022/10/11 10:44:59;;;;;;;1.90;0.67;;;;;;;;;;5061685;27;81971;-54
2022/10/11 10:47:43;;;;;;;2.00;0.80;;;;;;;;;;5062250;27;83943;-56
2022/10/11 10:50:15;;;;;;;0.40;0.40;;;;;;;;;;5059695;27;84841;-56
2022/10/11 10:52:47;;;;;;;2.80;0.90;;;;;;;;;;5059239;27;83146;-56
2022/10/11 10:55:18;;;;;;;1.23;0.83;;;;;;;;;;5061800;27;82203;-56
2022/10/11 10:57:50;;;;;;;1.07;0.60;;;;;;;;;;5059501;27;82591;-57
2022/10/11 11:00:19;;;;;;;3.63;0.77;;;;;;;;;;5060336;27;83907;-55
2022/10/11 11:02:49;;;;;;;1.07;0.63;;;;;;;;;;5061292;27;83220;-56
2022/10/11 11:05:24;;;;;;;0.67;0.67;;;;;;;;;;5061294;27;82017;-56
2022/10/11 11:07:53;;;;;;;2.93;1.00;;;;;;;;;;5061631;27;83586;-56
2022/10/11 11:10:22;;;;;;;1.80;0.63;;;;;;;;;;5063059;27;83226;-57
2022/10/11 11:12:52;;;;;;;1.40;0.57;;;;;;;;;;5062983;27;83742;-56
2022/10/11 11:15:22;;;;;;;1.00;0.90;;;;;;;;;;5066461;27;83492;-56
2022/10/11 11:18:04;;;;;;;0.40;0.40;;;;;;;;;;5066635;27;82827;-54
2022/10/11 11:20:38;;;;;;;1.50;0.50;;;;;;;;;;5066158;27;83817;-56
2022/10/11 11:23:10;;;;;;;2.47;0.77;;;;;;;;;;5066198;27;83800;-56
2022/10/11 11:25:42;;;;;;;1.63;1.00;;;;;;;;;;5066206;27;81982;-56
2022/10/11 11:28:30;;;;;;;0.43;0.43;;;;;;;;;;5066245;27;82690;-56
2022/10/11 11:30:59;;;;;;;0.90;0.83;;;;;;;;;;5034973;27;84130;-56
2022/10/11 11:33:30;;;;;;;0.80;0.50;;;;;;;;;;5066633;27;83938;-56
2022/10/11 11:36:02;;;;;;;1.37;0.80;;;;;;;;;;5066280;27;82025;-56
2022/10/11 11:38:34;;;;;;;0.70;0.70;;;;;;;;;;5066669;27;85157;-56
2022/10/11 11:41:03;;;;;;;2.73;1.00;;;;;;;;;;5065921;27;82947;-56
2022/10/11 11:43:33;;;;;;;0.60;0.40;;;;;;;;;;5066014;27;83567;-54
2022/10/11 11:46:03;;;;;;;0.70;0.70;;;;;;;;;;5065997;27;82251;-57
2022/10/11 11:48:31;;;;;;;1.03;0.70;;;;;;;;;;5066194;27;83813;-54
2022/10/11 11:51:03;;;;;;;0.67;0.50;;;;;;;;;;5065934;27;83981;-56
2022/10/11 11:53:36;;;;;;;0.30;0.30;;;;;;;;;;5065546;27;83868;-56
2022/10/11 11:56:06;;;;;;;0.83;0.60;;;;;;;;;;5065357;27;82008;-56
2022/10/11 11:58:35;;;;;;;2.67;0.83;;;;;;;;;;5065512;27;82606;-56
2022/10/11 12:01:06;;;;;;;1.60;0.60;;;;;;;;;;5065123;27;82018;-57
2022/10/11 12:03:36;;;;;;;4.63;0.97;;;;;;;;;;5065549;27;83466;-57
2022/10/11 12:06:26;;;;;;;0.63;0.63;;;;;;;;;;5065086;27;82821;-56
2022/10/11 12:09:00;;;;;;;0.67;0.53;;;;;;;;;;5065878;27;81827;-56
2022/10/11 12:11:29;;;;;;;0.50;0.50;;;;;;;;;;5065224;27;83759;-56
2022/10/11 12:14:03;;;;;;;0.43;0.40;;;;;;;;;;5065405;27;81964;-57
2022/10/11 12:16:31;;;;;;;1.00;0.63;;;;;;;;;;5065183;27;82046;-56
2022/10/11 12:19:01;;;;;;;0.60;0.60;;;;;;;;;;5064378;27;84292;-56
2022/10/11 12:21:33;;;;;;;0.47;0.47;;;;;;;;;;5064883;27;81899;-56
2022/10/11 12:24:10;;;;;;;0.67;0.67;;;;;;;;;;5066041;27;82617;-57
2022/10/11 12:26:39;;;;;;;0.80;0.70;;;;;;;;;;5065179;27;82207;-56
2022/10/11 12:29:27;;;;;;;1.07;0.80;;;;;;;;;;5065155;27;83664;-56
2022/10/11 12:32:13;;;;;;;0.83;0.73;;;;;;;;;;5064271;27;84911;-57
2022/10/11 12:34:42;;;;;;;1.67;0.70;;;;;;;;;;5065593;27;83759;-57
2022/10/11 12:37:29;;;;;;;0.60;0.60;;;;;;;;;;5064893;27;82274;-58
2022/10/11 12:39:59;;;;;;;1.17;0.70;;;;;;;;;;5064875;27;82548;-56
2022/10/11 12:42:28;;;;;;;1.07;0.97;;;;;;;;;;5064792;27;82820;-57
2022/10/11 12:45:15;;;;;;;4.37;1.23;;;;;;;;;;5063133;27;84128;-56
2022/10/11 12:47:44;;;;;;;1.77;1.10;;;;;;;;;;5043033;27;82472;-56
2022/10/11 12:50:14;;;;;;;5.17;1.10;;;;;;;;;;5044902;27;83947;-55
2022/10/11 12:52:43;;;;;;;1.77;0.80;;;;;;;;;;5044696;27;84034;-57
2022/10/11 12:55:18;;;;;;;2.27;1.17;;;;;;;;;;5044745;27;83667;-57
2022/10/11 12:58:06;;;;;;;1.13;0.80;;;;;;;;;;5044482;27;82923;-57
2022/10/11 13:00:35;;;;;;;1.70;1.30;;;;;;;;;;5044588;27;83574;-56
2022/10/11 13:03:04;;;;;;;1.83;0.87;;;;;;;;;;5053525;27;83007;-57
2022/10/11 13:05:32;;;;;;;2.63;0.90;;;;;;;;;;5064191;27;83866;-56
2022/10/11 13:08:03;;;;;;;3.37;1.83;;;;;;;;;;5064485;27;81869;-56
2022/10/11 13:10:33;;;;;;;4.13;1.43;;;;;;;;;;5064790;27;82941;-56
2022/10/11 13:13:03;;;;;;;1.50;0.90;;;;;;;;;;5064581;27;84076;-56
2022/10/11 13:15:31;;;;;;;1.70;0.97;;;;;;;;;;5065075;27;84018;-56
2022/10/11 13:18:00;;;;;;;2.00;1.00;;;;;;;;;;5064849;27;82005;-56
2022/10/11 13:20:29;;;;;;;3.57;1.60;;;;;;;;;;5064664;27;83888;-56
2022/10/11 13:22:57;;;;;;;4.50;1.40;;;;;;;;;;5064116;27;83747;-56
2022/10/11 13:25:26;;;;;;;8.67;2.87;;;;;;;;;;5064177;27;83950;-56
2022/10/11 13:27:56;;;;;;;3.47;1.67;;;;;;;;;;5063506;27;82440;-56
2022/10/11 13:30:25;;;;;;;2.60;1.43;;;;;;;;;;5063700;27;82659;-56
2022/10/11 13:32:55;;;;;;;2.90;1.50;;;;;;;;;;5063851;27;82024;-56
2022/10/11 13:35:25;;;;;;;3.13;1.57;;;;;;;;;;5064474;27;82794;-56
2022/10/11 13:37:53;;;;;;;2.77;1.83;;;;;;;;;;5063767;27;82007;-56
2022/10/11 13:40:22;;;;;;;3.23;2.00;;;;;;;;;;5064313;27;82782;-56
2022/10/11 13:42:50;;;;;;;2.50;1.90;;;;;;;;;;5063913;27;82773;-56
2022/10/11 13:45:21;;;;;;;4.90;2.27;;;;;;;;;;5064516;27;82507;-56
2022/10/11 13:47:49;;;;;;;4.17;1.60;;;;;;;;;;5064021;27;82755;-56
2022/10/11 13:50:23;;;;;;;3.53;2.40;;;;;;;;;;5064090;27;83004;-57
2022/10/11 13:52:54;;;;;;;2.93;2.07;;;;;;;;;;5063560;27;84037;-56
2022/10/11 13:55:26;;;;;;;5.67;2.83;;;;;;;;;;5063968;27;83874;-55
2022/10/11 13:57:54;;;;;;;5.00;2.53;;;;;;;;;;5063892;27;81978;-57
2022/10/11 14:00:25;;;;;;;7.53;2.87;;;;;;;;;;5063596;27;81984;-57
2022/10/11 14:02:55;;;;;;;3.80;2.67;;;;;;;;;;5063463;27;83630;-57
2022/10/11 14:05:24;;;;;;;3.97;2.37;;;;;;;;;;5064059;27;83708;-56
2022/10/11 14:07:52;;;;;;;5.73;2.47;;;;;;;;;;5064035;27;81826;-56
2022/10/11 14:10:21;;;;;;;5.87;3.13;;;;;;;;;;5063941;27;83620;-57
2022/10/11 14:13:01;;;;;;;6.73;2.90;;;;;;;;;;5062900;27;84921;-57
2022/10/11 14:15:31;;;;;;;11.33;3.50;;;;;;;;;;5063839;27;84660;-57
2022/10/11 14:18:00;;;;;;;5.23;3.10;;;;;;;;;;5062042;27;82296;-56
2022/10/11 14:20:35;;;;;;;6.43;3.23;;;;;;;;;;5062395;27;82776;-56
2022/10/11 14:23:03;;;;;;;7.90;3.37;;;;;;;;;;5063727;27;83987;-56
2022/10/11 14:25:31;;;;;;;8.63;3.83;;;;;;;;;;5063926;27;81916;-56
2022/10/11 14:28:00;;;;;;;7.70;4.00;;;;;;;;;;5063087;27;81873;-56
2022/10/11 14:30:30;;;;;;;8.73;4.20;;;;;;;;;;5063481;27;82711;-56
2022/10/11 14:33:00;;;;;;;6.10;4.17;;;;;;;;;;5062859;27;82919;-56
2022/10/11 14:35:29;;;;;;;6.47;4.17;;;;;;;;;;5063799;27;82603;-56
2022/10/11 14:37:57;;;;;;;6.03;3.70;;;;;;;;;;5063306;27;82908;-56
2022/10/11 14:40:26;;;;;;;7.00;3.97;;;;;;;;;;5063442;27;82599;-56
2022/10/11 14:42:55;;;;;;;8.83;4.77;;;;;;;;;;5063399;27;84391;-56
2022/10/11 14:45:24;;;;;;;7.90;4.03;;;;;;;;;;5063003;27;83257;-56
2022/10/11 14:47:52;;;;;;;11.17;4.80;;;;;;;;;;5063615;27;81847;-56
2022/10/11 14:50:23;;;;;;;7.97;4.47;;;;;;;;;;5066805;27;82680;-56
2022/10/11 14:52:52;;;;;;;8.10;5.00;;;;;;;;;;5066556;27;83046;-56